Butte, North Dakota
Current Conditions -  °F | °C
As of 3:55 AM on Sunday 23 Nov 2014 (Local Time) from K5H4 Reporting Station
Few Clouds Few Clouds  
Wind Chill: 30°   Ceiling: Unl
Heat Index: 37°   Visibility: 10mi
Dew Point: 32°   Wind: 12mph
Humidity: 81%   Direction: 240°WSW
Pressure: 29.36"   Gusts: NA
Location:  47.84°N, 100.67°W
Report Text: K5H4 230955Z AUTO 24010KT 10SM FEW100 03/00 A2936 RMK AO2
Loading
Personal Weather Stations






























Interactive Weather Map New forecast layout! Learn more

10-Day Weather Forecast

Advertisements
Track Severe Weather on mobile